Time;durP1;ratioP1;P1;durP2;ratioP2;P2;SDS_P1;SDS_P2;PMS_P1;PMS_P2;Temp;Humidity;BMP_temperature;BMP_pressure;BME280_temperature;BME280_humidity;BME280_pressure;Samples;Min_cycle;Max_cycle;Signal;HPM_P1;HPM_P2
2022/01/28 00:01:02;;;;;;;29.65;26.38;;;;;;;;;;5057388;28;20579;-44
2022/01/28 00:03:29;;;;;;;29.75;16.83;;;;;;;;;;5055169;28;20032;-47
2022/01/28 00:05:55;;;;;;;28.48;22.35;;;;;;;;;;5053507;28;20629;-45
2022/01/28 00:08:20;;;;;;;31.70;21.90;;;;;;;;;;5053615;28;20060;-44
2022/01/28 00:10:45;;;;;;;25.10;20.13;;;;;;;;;;5056755;28;20071;-46
2022/01/28 00:39:44;;;;;;;62.63;40.00;;;;;;;;;;5053373;28;20024;-47
2022/01/28 00:42:10;;;;;;;61.72;34.03;;;;;;;;;;5053652;28;20028;-47
2022/01/28 00:44:35;;;;;;;47.70;31.38;;;;;;;;;;5055260;28;20025;-44
2022/01/28 00:47:01;;;;;;;55.85;35.50;;;;;;;;;;5054402;28;20025;-44
2022/01/28 00:49:26;;;;;;;45.53;35.40;;;;;;;;;;5055065;28;20449;-47
2022/01/28 00:51:51;;;;;;;54.60;30.48;;;;;;;;;;5051794;28;20028;-43
2022/01/28 00:54:19;;;;;;;52.53;32.13;;;;;;;;;;5056071;28;20021;-43
2022/01/28 00:56:45;;;;;;;36.83;28.10;;;;;;;;;;5053353;28;20045;-43
2022/01/28 00:59:11;;;;;;;46.55;29.85;;;;;;;;;;5053513;28;20025;-46
2022/01/28 01:01:37;;;;;;;35.78;26.80;;;;;;;;;;5057159;28;20067;-47
2022/01/28 01:04:02;;;;;;;46.40;27.65;;;;;;;;;;5052406;28;20039;-46
2022/01/28 01:06:28;;;;;;;44.40;27.38;;;;;;;;;;5055490;28;20020;-44
2022/01/28 01:08:53;;;;;;;36.42;27.02;;;;;;;;;;5055394;28;20170;-44
2022/01/28 01:11:21;;;;;;;39.47;25.77;;;;;;;;;;5052398;28;20032;-44
2022/01/28 01:13:47;;;;;;;31.80;23.17;;;;;;;;;;5052998;28;20023;-42
2022/01/28 01:16:16;;;;;;;40.95;24.00;;;;;;;;;;5054945;28;20042;-45
2022/01/28 01:19:26;;;;;;;22.08;16.58;;;;;;;;;;5052527;28;20580;-46
2022/01/28 01:21:37;;;;;;;73.88;31.05;;;;;;;;;;5049170;28;20037;-46
2022/01/28 01:24:02;;;;;;;42.65;27.58;;;;;;;;;;5053787;28;20029;-44
2022/01/28 01:26:33;;;;;;;38.25;22.20;;;;;;;;;;5054579;28;20020;-48
2022/01/28 01:28:58;;;;;;;35.60;19.35;;;;;;;;;;5051810;28;20028;-47
2022/01/28 01:31:24;;;;;;;25.30;15.13;;;;;;;;;;5055001;28;20790;-48
2022/01/28 01:34:00;;;;;;;48.28;22.48;;;;;;;;;;5052053;28;20032;-47
2022/01/28 01:36:25;;;;;;;38.63;20.65;;;;;;;;;;5054701;28;20446;-48
2022/01/28 01:38:50;;;;;;;29.42;19.92;;;;;;;;;;5054360;28;20047;-44
2022/01/28 01:41:24;;;;;;;39.22;22.27;;;;;;;;;;5053145;28;20484;-44
2022/01/28 01:44:13;;;;;;;44.42;17.67;;;;;;;;;;5052955;28;20562;-47
2022/01/28 01:52:02;;;;;;;33.13;19.95;;;;;;;;;;5052455;28;20033;-43
2022/01/28 01:52:17;;;;;;;34.95;16.48;;;;;;;;;;5053271;28;20097;-43
2022/01/28 01:54:43;;;;;;;19.15;11.82;;;;;;;;;;5057230;28;20066;-44
2022/01/28 01:57:10;;;;;;;17.02;9.95;;;;;;;;;;5051870;28;20354;-46
2022/01/28 01:59:35;;;;;;;23.67;14.70;;;;;;;;;;5055413;28;20031;-44
2022/01/28 02:02:01;;;;;;;23.95;13.45;;;;;;;;;;5052730;28;20029;-46
2022/01/28 02:04:26;;;;;;;26.52;15.93;;;;;;;;;;5052792;28;20771;-45
2022/01/28 02:06:52;;;;;;;26.20;15.05;;;;;;;;;;5052568;28;20043;-43
2022/01/28 02:09:17;;;;;;;31.23;19.17;;;;;;;;;;5053602;28;20067;-43
2022/01/28 02:11:42;;;;;;;37.88;23.38;;;;;;;;;;5051713;28;20028;-45
2022/01/28 02:14:08;;;;;;;37.58;21.35;;;;;;;;;;5053941;28;20029;-45
2022/01/28 02:16:33;;;;;;;32.20;19.85;;;;;;;;;;5055176;28;20051;-44
2022/01/28 02:18:59;;;;;;;24.05;11.05;;;;;;;;;;5058645;28;20101;-47
2022/01/28 02:21:24;;;;;;;14.45;9.60;;;;;;;;;;5053752;28;20456;-45
2022/01/28 02:23:55;;;;;;;12.60;9.15;;;;;;;;;;5051616;28;20025;-49
2022/01/28 02:26:21;;;;;;;13.35;8.65;;;;;;;;;;5052361;28;20082;-43
2022/01/28 02:28:50;;;;;;;17.63;8.13;;;;;;;;;;5053187;28;20033;-46
2022/01/28 02:31:23;;;;;;;10.07;5.88;;;;;;;;;;5052378;28;20071;-44
2022/01/28 02:33:50;;;;;;;18.45;9.98;;;;;;;;;;5051822;28;20044;-47
2022/01/28 02:36:15;;;;;;;16.25;10.68;;;;;;;;;;5053817;28;20051;-48
2022/01/28 02:38:40;;;;;;;17.48;9.38;;;;;;;;;;5054620;28;20435;-48
2022/01/28 02:41:07;;;;;;;25.98;13.52;;;;;;;;;;5057272;28;20017;-45
2022/01/28 02:43:39;;;;;;;22.20;11.65;;;;;;;;;;5053237;28;20081;-45
2022/01/28 02:46:11;;;;;;;18.52;13.75;;;;;;;;;;5052978;28;20556;-47
2022/01/28 02:48:40;;;;;;;29.27;16.45;;;;;;;;;;5053888;28;20047;-47
2022/01/28 02:53:44;;;;;;;29.13;12.23;;;;;;;;;;5054882;28;20077;-45
2022/01/28 02:56:19;;;;;;;21.90;13.43;;;;;;;;;;5054176;28;20135;-47
2022/01/28 02:58:45;;;;;;;20.10;13.18;;;;;;;;;;5055314;28;20025;-44
2022/01/28 03:01:14;;;;;;;16.48;11.23;;;;;;;;;;5055517;28;20461;-46
2022/01/28 03:03:44;;;;;;;17.05;11.70;;;;;;;;;;5052758;28;20509;-43
2022/01/28 03:06:09;;;;;;;14.27;11.20;;;;;;;;;;5055331;28;20075;-46
2022/01/28 03:08:35;;;;;;;24.17;12.45;;;;;;;;;;5052022;28;20431;-46
2022/01/28 03:16:07;;;;;;;22.65;12.18;;;;;;;;;;5049786;28;20404;-44
2022/01/28 03:18:43;;;;;;;24.38;12.77;;;;;;;;;;5051955;28;20184;-46
2022/01/28 03:21:21;;;;;;;15.63;10.25;;;;;;;;;;5055477;28;20516;-46
2022/01/28 03:23:46;;;;;;;19.08;10.48;;;;;;;;;;5053619;28;20021;-44
2022/01/28 03:26:13;;;;;;;12.07;6.72;;;;;;;;;;5054453;28;20163;-48
2022/01/28 03:28:38;;;;;;;8.82;6.95;;;;;;;;;;5055558;28;20021;-44
2022/01/28 03:31:03;;;;;;;14.40;8.13;;;;;;;;;;5057398;28;20032;-47
2022/01/28 03:33:29;;;;;;;11.75;4.25;;;;;;;;;;5057729;28;20104;-45
2022/01/28 03:35:54;;;;;;;71.82;44.72;;;;;;;;;;5053149;28;20031;-48
2022/01/28 03:38:19;;;;;;;273.58;161.13;;;;;;;;;;5057266;28;20741;-48
2022/01/28 03:40:46;;;;;;;31.83;23.15;;;;;;;;;;5060485;28;20480;-45
2022/01/28 03:43:13;;;;;;;64.38;40.95;;;;;;;;;;5056922;28;20035;-49
2022/01/28 03:45:38;;;;;;;79.70;44.55;;;;;;;;;;5060471;28;20062;-44
2022/01/28 03:48:03;;;;;;;123.57;55.45;;;;;;;;;;5060257;28;20025;-45
2022/01/28 03:50:32;;;;;;;96.10;48.80;;;;;;;;;;5059916;28;20021;-46
2022/01/28 03:52:58;;;;;;;46.72;25.92;;;;;;;;;;5057037;28;20733;-42
2022/01/28 03:55:23;;;;;;;20.67;15.75;;;;;;;;;;5061066;28;20115;-45
2022/01/28 03:57:48;;;;;;;21.05;13.60;;;;;;;;;;5056385;28;20107;-44
2022/01/28 04:00:14;;;;;;;15.48;10.88;;;;;;;;;;5057407;28;20020;-43
2022/01/28 04:02:43;;;;;;;16.52;7.78;;;;;;;;;;5056930;28;20765;-42
2022/01/28 04:13:24;;;;;;;14.27;9.95;;;;;;;;;;5058002;28;20035;-43
2022/01/28 04:16:04;;;;;;;16.25;12.48;;;;;;;;;;5061331;28;20028;-44
2022/01/28 04:18:30;;;;;;;19.45;10.27;;;;;;;;;;5055354;28;20024;-45
2022/01/28 04:20:55;;;;;;;16.50;10.73;;;;;;;;;;5054272;28;20017;-41
2022/01/28 04:23:20;;;;;;;15.38;7.35;;;;;;;;;;5057745;28;20079;-42
2022/01/28 04:25:46;;;;;;;18.80;12.10;;;;;;;;;;5056610;28;20034;-44
2022/01/28 04:28:11;;;;;;;11.98;7.85;;;;;;;;;;5054556;28;20410;-44
2022/01/28 04:30:36;;;;;;;11.90;6.57;;;;;;;;;;5053327;28;20213;-43
2022/01/28 04:33:02;;;;;;;15.40;6.40;;;;;;;;;;5055661;28;20104;-45
2022/01/28 04:35:27;;;;;;;8.98;5.97;;;;;;;;;;5053072;28;20028;-42
2022/01/28 04:40:33;;;;;;;5.75;4.47;;;;;;;;;;5055041;28;20032;-43
2022/01/28 04:51:16;;;;;;;10.68;6.63;;;;;;;;;;5056110;28;20482;-45
2022/01/28 04:53:57;;;;;;;9.73;7.60;;;;;;;;;;5051229;28;20071;-43
2022/01/28 05:07:31;;;;;;;9.45;7.05;;;;;;;;;;5037748;28;20029;-44
2022/01/28 05:10:31;;;;;;;11.32;7.07;;;;;;;;;;5054346;28;20024;-45
2022/01/28 05:15:50;;;;;;;16.17;9.40;;;;;;;;;;5057494;28;20020;-45
2022/01/28 05:27:18;;;;;;;14.00;9.52;;;;;;;;;;5053415;28;20025;-47
2022/01/28 05:29:10;;;;;;;12.23;6.88;;;;;;;;;;5047332;28;20060;-43
2022/01/28 05:31:35;;;;;;;12.95;7.07;;;;;;;;;;5055522;28;20098;-45
2022/01/28 05:34:01;;;;;;;12.75;8.35;;;;;;;;;;5052969;28;20470;-45
2022/01/28 05:36:26;;;;;;;10.30;7.32;;;;;;;;;;5055386;28;20791;-43
2022/01/28 05:38:52;;;;;;;14.82;9.23;;;;;;;;;;5051801;28;20068;-46
2022/01/28 05:41:17;;;;;;;23.67;19.55;;;;;;;;;;5055396;28;20021;-47
2022/01/28 05:43:42;;;;;;;19.65;12.85;;;;;;;;;;5053919;28;20025;-42
2022/01/28 05:46:08;;;;;;;37.00;14.68;;;;;;;;;;5051857;28;20028;-46
2022/01/28 05:48:33;;;;;;;43.03;22.92;;;;;;;;;;5051444;28;20032;-43
2022/01/28 05:50:59;;;;;;;49.38;30.08;;;;;;;;;;5052838;28;20129;-42
2022/01/28 05:53:24;;;;;;;118.97;59.70;;;;;;;;;;5050085;28;20021;-43
2022/01/28 05:55:49;;;;;;;99.70;51.40;;;;;;;;;;5051601;28;20060;-45
2022/01/28 05:58:15;;;;;;;141.90;83.60;;;;;;;;;;5048362;28;20024;-44
2022/01/28 06:00:40;;;;;;;90.88;54.40;;;;;;;;;;5052758;28;20025;-44
2022/01/28 06:03:05;;;;;;;85.20;52.50;;;;;;;;;;5053286;28;20099;-44
2022/01/28 06:05:31;;;;;;;82.18;46.85;;;;;;;;;;5050939;28;20021;-43
2022/01/28 06:07:57;;;;;;;51.67;30.58;;;;;;;;;;5051150;28;20025;-44
2022/01/28 06:10:22;;;;;;;51.25;22.23;;;;;;;;;;5051300;28;20033;-44
2022/01/28 06:12:48;;;;;;;32.72;13.75;;;;;;;;;;5051043;28;20039;-44
2022/01/28 06:15:13;;;;;;;27.73;12.15;;;;;;;;;;5054437;28;20110;-49
2022/01/28 06:17:39;;;;;;;18.83;10.43;;;;;;;;;;5052724;28;20115;-47
2022/01/28 06:20:05;;;;;;;20.52;14.23;;;;;;;;;;5055073;28;20075;-43
2022/01/28 06:22:30;;;;;;;36.80;27.15;;;;;;;;;;5051400;28;20020;-45
2022/01/28 06:24:56;;;;;;;36.08;23.33;;;;;;;;;;5052757;28;20024;-42
2022/01/28 06:27:22;;;;;;;39.05;23.77;;;;;;;;;;5053784;28;20093;-43
2022/01/28 06:29:48;;;;;;;19.75;13.10;;;;;;;;;;5048956;28;20055;-43
2022/01/28 06:32:13;;;;;;;14.82;9.30;;;;;;;;;;5054854;28;20469;-47
2022/01/28 06:34:39;;;;;;;27.63;12.73;;;;;;;;;;5050959;28;20103;-43
2022/01/28 06:37:05;;;;;;;15.77;10.50;;;;;;;;;;5051129;28;20035;-43
2022/01/28 06:39:32;;;;;;;28.90;18.58;;;;;;;;;;5051137;28;20067;-47
2022/01/28 06:41:58;;;;;;;41.13;23.17;;;;;;;;;;5053864;28;20427;-47
2022/01/28 06:44:23;;;;;;;37.47;21.33;;;;;;;;;;5050127;28;20545;-46
2022/01/28 06:46:49;;;;;;;38.28;18.25;;;;;;;;;;5054313;28;20120;-44
2022/01/28 06:49:14;;;;;;;25.40;15.45;;;;;;;;;;5057403;28;20815;-42
2022/01/28 06:51:39;;;;;;;42.20;19.88;;;;;;;;;;5049296;28;20033;-43
2022/01/28 06:54:05;;;;;;;34.67;18.08;;;;;;;;;;5051407;28;20056;-45
2022/01/28 06:56:30;;;;;;;35.60;22.30;;;;;;;;;;5049945;28;20405;-47
2022/01/28 06:58:55;;;;;;;35.85;23.08;;;;;;;;;;5051468;28;20028;-46
2022/01/28 07:01:20;;;;;;;36.88;24.20;;;;;;;;;;5056230;28;20025;-45
2022/01/28 07:03:46;;;;;;;40.42;26.42;;;;;;;;;;5056688;28;20132;-45
2022/01/28 07:06:12;;;;;;;45.10;24.52;;;;;;;;;;5056560;28;20039;-45
2022/01/28 07:08:38;;;;;;;42.90;29.90;;;;;;;;;;5057581;28;20024;-47
2022/01/28 07:11:03;;;;;;;30.65;19.52;;;;;;;;;;5059579;28;20031;-46
2022/01/28 07:13:29;;;;;;;28.08;19.40;;;;;;;;;;5056416;28;20402;-48
2022/01/28 07:15:54;;;;;;;34.53;23.38;;;;;;;;;;5057919;28;20016;-42
2022/01/28 07:18:20;;;;;;;41.15;24.42;;;;;;;;;;5059201;28;20021;-46
2022/01/28 07:20:46;;;;;;;28.33;21.33;;;;;;;;;;5057275;28;20024;-44
2022/01/28 07:23:11;;;;;;;38.22;27.30;;;;;;;;;;5059415;28;20079;-43
2022/01/28 07:25:37;;;;;;;58.95;25.30;;;;;;;;;;5060237;28;20074;-44
2022/01/28 07:28:02;;;;;;;45.97;24.25;;;;;;;;;;5057706;28;20508;-43
2022/01/28 07:30:28;;;;;;;33.35;25.73;;;;;;;;;;5058797;28;20175;-47
2022/01/28 07:33:00;;;;;;;29.08;23.73;;;;;;;;;;5058917;28;20031;-44
2022/01/28 07:35:26;;;;;;;36.65;19.23;;;;;;;;;;5060158;28;20020;-42
2022/01/28 07:37:52;;;;;;;48.30;23.73;;;;;;;;;;5054779;28;20051;-45
2022/01/28 07:40:17;;;;;;;32.03;21.77;;;;;;;;;;5059735;28;20470;-47
2022/01/28 07:42:42;;;;;;;22.95;17.55;;;;;;;;;;5057635;28;20023;-46
2022/01/28 07:45:08;;;;;;;26.55;17.67;;;;;;;;;;5054504;28;20065;-47
2022/01/28 07:47:36;;;;;;;21.23;13.77;;;;;;;;;;5058896;28;20025;-43
2022/01/28 07:50:02;;;;;;;27.98;16.77;;;;;;;;;;5059991;28;20633;-44
2022/01/28 07:52:27;;;;;;;19.90;12.65;;;;;;;;;;5059064;28;20031;-36
2022/01/28 07:54:53;;;;;;;16.80;10.80;;;;;;;;;;5059869;28;20029;-35
2022/01/28 07:57:18;;;;;;;28.05;19.52;;;;;;;;;;5057970;28;20669;-35
2022/01/28 07:59:44;;;;;;;45.20;33.15;;;;;;;;;;5059609;28;20399;-35
2022/01/28 08:02:09;;;;;;;46.17;29.60;;;;;;;;;;5059159;28;20036;-36
2022/01/28 08:04:35;;;;;;;65.95;34.88;;;;;;;;;;5062786;28;20013;-35
2022/01/28 08:07:00;;;;;;;59.67;37.95;;;;;;;;;;5057660;28;20150;-35
2022/01/28 08:09:25;;;;;;;47.20;27.98;;;;;;;;;;5056893;28;20485;-35
2022/01/28 08:11:51;;;;;;;38.22;26.52;;;;;;;;;;5053855;28;20028;-35
2022/01/28 08:14:16;;;;;;;49.33;29.48;;;;;;;;;;5053603;28;20071;-35
2022/01/28 08:16:41;;;;;;;29.15;24.35;;;;;;;;;;5054599;28;20265;-36
2022/01/28 08:19:06;;;;;;;25.98;21.70;;;;;;;;;;5052625;28;20410;-36
2022/01/28 08:21:32;;;;;;;28.10;20.67;;;;;;;;;;5055251;28;20127;-35
2022/01/28 08:23:57;;;;;;;48.00;19.85;;;;;;;;;;5055386;28;20021;-36
2022/01/28 08:26:22;;;;;;;34.00;23.70;;;;;;;;;;5054332;28;20496;-35
2022/01/28 08:28:48;;;;;;;36.65;31.48;;;;;;;;;;5053304;28;20111;-36
2022/01/28 08:31:14;;;;;;;49.80;36.38;;;;;;;;;;5055469;28;20406;-37
2022/01/28 08:33:39;;;;;;;67.95;49.67;;;;;;;;;;5052884;28;20451;-36
2022/01/28 08:36:05;;;;;;;72.95;55.92;;;;;;;;;;5053105;28;20044;-36
2022/01/28 08:38:36;;;;;;;73.40;59.42;;;;;;;;;;5055695;28;20448;-35
2022/01/28 08:41:01;;;;;;;86.38;61.78;;;;;;;;;;5054960;28;20025;-35
2022/01/28 08:43:27;;;;;;;73.22;54.05;;;;;;;;;;5053146;28;20077;-36
2022/01/28 08:45:52;;;;;;;72.75;53.88;;;;;;;;;;5056406;28;20506;-36
2022/01/28 08:48:18;;;;;;;71.40;52.97;;;;;;;;;;5057228;28;20484;-35
2022/01/28 08:50:43;;;;;;;60.45;42.63;;;;;;;;;;5053193;28;20013;-35
2022/01/28 08:53:09;;;;;;;57.83;40.63;;;;;;;;;;5053656;28;20237;-35
2022/01/28 08:55:34;;;;;;;70.00;45.38;;;;;;;;;;5054636;28;20027;-34
2022/01/28 08:58:00;;;;;;;58.63;39.85;;;;;;;;;;5053716;28;20053;-35
2022/01/28 09:00:25;;;;;;;52.65;39.72;;;;;;;;;;5053146;28;20092;-35
2022/01/28 09:02:50;;;;;;;44.50;35.85;;;;;;;;;;5054711;28;20108;-35
2022/01/28 09:05:16;;;;;;;56.00;34.92;;;;;;;;;;5052360;28;20685;-35
2022/01/28 09:07:41;;;;;;;37.53;32.17;;;;;;;;;;5054063;28;20064;-35
2022/01/28 09:10:17;;;;;;;32.22;26.50;;;;;;;;;;5054756;28;20028;-36
2022/01/28 09:13:10;;;;;;;33.67;27.60;;;;;;;;;;5053641;28;20028;-35
2022/01/28 09:15:33;;;;;;;47.28;34.35;;;;;;;;;;5051937;28;20035;-35
2022/01/28 09:17:58;;;;;;;37.72;28.98;;;;;;;;;;5054127;28;20097;-35
2022/01/28 09:20:23;;;;;;;59.55;40.95;;;;;;;;;;5055430;28;20493;-35
2022/01/28 09:22:49;;;;;;;44.40;39.42;;;;;;;;;;5054437;28;20572;-36
2022/01/28 09:25:14;;;;;;;57.13;37.55;;;;;;;;;;5055959;28;20076;-36
2022/01/28 09:27:39;;;;;;;41.10;34.60;;;;;;;;;;5053719;28;20035;-37
2022/01/28 09:30:05;;;;;;;49.20;35.10;;;;;;;;;;5051649;28;20093;-39
2022/01/28 09:32:30;;;;;;;68.93;42.50;;;;;;;;;;5053183;28;20189;-37
2022/01/28 09:34:56;;;;;;;49.63;40.22;;;;;;;;;;5056749;28;20135;-37
2022/01/28 09:37:21;;;;;;;41.33;37.00;;;;;;;;;;5051592;28;20021;-37
2022/01/28 09:39:48;;;;;;;52.80;40.22;;;;;;;;;;5052946;28;20394;-37
2022/01/28 09:42:16;;;;;;;50.40;44.20;;;;;;;;;;5050219;28;20020;-37
2022/01/28 09:44:42;;;;;;;35.65;31.77;;;;;;;;;;5052044;28;20097;-37
2022/01/28 09:47:09;;;;;;;27.10;24.45;;;;;;;;;;5052801;28;20127;-38
2022/01/28 09:49:36;;;;;;;37.65;27.00;;;;;;;;;;5053387;28;20029;-37
2022/01/28 09:52:02;;;;;;;41.15;29.95;;;;;;;;;;5053122;28;20500;-36
2022/01/28 09:54:27;;;;;;;40.38;35.92;;;;;;;;;;5052709;28;20031;-37
2022/01/28 09:56:53;;;;;;;42.70;33.65;;;;;;;;;;5037603;28;20866;-36
2022/01/28 09:59:18;;;;;;;52.75;36.20;;;;;;;;;;5019751;28;20771;-37
2022/01/28 10:01:50;;;;;;;42.78;29.25;;;;;;;;;;5051402;28;20021;-38
2022/01/28 10:04:17;;;;;;;28.58;25.70;;;;;;;;;;5038583;28;20056;-37
2022/01/28 10:06:43;;;;;;;31.85;24.40;;;;;;;;;;5033789;28;20157;-37
2022/01/28 10:09:09;;;;;;;31.95;24.75;;;;;;;;;;5026338;28;20737;-37
2022/01/28 10:11:36;;;;;;;38.50;25.08;;;;;;;;;;5050565;28;20024;-36
2022/01/28 10:14:07;;;;;;;21.75;19.15;;;;;;;;;;5051286;28;20032;-36
2022/01/28 10:16:33;;;;;;;87.35;79.53;;;;;;;;;;5050676;28;20037;-36
2022/01/28 10:18:59;;;;;;;36.88;32.33;;;;;;;;;;5055444;28;20040;-37
2022/01/28 10:21:36;;;;;;;33.88;27.75;;;;;;;;;;5048513;28;20100;-36
2022/01/28 10:24:18;;;;;;;41.38;32.25;;;;;;;;;;5053787;28;20017;-36
2022/01/28 10:26:56;;;;;;;53.20;32.45;;;;;;;;;;5050702;28;20056;-39
2022/01/28 10:29:25;;;;;;;36.60;28.08;;;;;;;;;;5050297;28;20556;-39
2022/01/28 10:31:54;;;;;;;42.25;32.88;;;;;;;;;;5049849;28;20043;-35
2022/01/28 10:34:20;;;;;;;54.15;44.58;;;;;;;;;;5048204;28;20103;-36
2022/01/28 10:36:46;;;;;;;81.53;39.92;;;;;;;;;;5050618;28;20098;-36
2022/01/28 10:39:13;;;;;;;54.90;43.05;;;;;;;;;;5049342;28;20082;-36
2022/01/28 10:41:47;;;;;;;53.72;35.45;;;;;;;;;;5049053;28;20020;-36
2022/01/28 10:44:14;;;;;;;36.42;29.48;;;;;;;;;;5051655;28;20021;-39
2022/01/28 10:46:39;;;;;;;40.50;29.88;;;;;;;;;;5052673;28;20097;-40
2022/01/28 10:49:08;;;;;;;43.70;38.30;;;;;;;;;;5053430;28;20032;-41
2022/01/28 10:51:36;;;;;;;51.95;42.55;;;;;;;;;;5048877;28;20040;-39
2022/01/28 10:54:09;;;;;;;44.35;40.00;;;;;;;;;;5053336;28;20234;-36
2022/01/28 10:56:55;;;;;;;35.90;32.05;;;;;;;;;;5051134;28;20044;-36
2022/01/28 10:59:22;;;;;;;27.65;23.15;;;;;;;;;;5050535;28;20481;-36
2022/01/28 11:01:48;;;;;;;29.00;25.85;;;;;;;;;;5053534;28;20047;-36
2022/01/28 11:04:15;;;;;;;35.03;25.45;;;;;;;;;;5050752;28;20481;-38
2022/01/28 11:06:40;;;;;;;26.77;19.52;;;;;;;;;;5055595;28;20029;-36
2022/01/28 11:09:07;;;;;;;13.48;9.02;;;;;;;;;;5053570;28;20030;-38
2022/01/28 11:11:32;;;;;;;22.52;8.85;;;;;;;;;;5049521;28;20024;-40
2022/01/28 11:13:58;;;;;;;24.08;8.00;;;;;;;;;;5050406;28;20029;-39
2022/01/28 11:16:24;;;;;;;11.77;9.32;;;;;;;;;;5050441;28;20385;-40
2022/01/28 11:18:50;;;;;;;17.15;11.70;;;;;;;;;;5052596;28;20047;-41
2022/01/28 11:21:17;;;;;;;41.90;29.00;;;;;;;;;;5046984;28;20020;-37
2022/01/28 11:23:43;;;;;;;42.58;27.80;;;;;;;;;;5051338;28;20036;-39
2022/01/28 11:26:11;;;;;;;33.60;26.05;;;;;;;;;;5052241;28;20021;-37
2022/01/28 11:28:38;;;;;;;24.92;15.75;;;;;;;;;;5052685;28;20315;-39
2022/01/28 11:31:03;;;;;;;55.45;46.45;;;;;;;;;;5052275;28;20021;-38
2022/01/28 11:33:42;;;;;;;62.05;44.08;;;;;;;;;;5051664;28;20568;-37
2022/01/28 11:36:07;;;;;;;79.10;65.55;;;;;;;;;;5053437;28;20127;-40
2022/01/28 11:38:36;;;;;;;90.32;65.88;;;;;;;;;;5055492;28;20389;-40
2022/01/28 11:41:08;;;;;;;23.25;16.30;;;;;;;;;;5050427;28;20116;-38
2022/01/28 11:43:34;;;;;;;18.65;16.10;;;;;;;;;;5050080;28;20021;-36
2022/01/28 11:46:19;;;;;;;23.23;15.25;;;;;;;;;;5048194;28;20035;-39
2022/01/28 11:48:54;;;;;;;33.85;24.85;;;;;;;;;;5059539;28;20044;-37
2022/01/28 11:51:23;;;;;;;27.55;19.58;;;;;;;;;;5053202;28;20021;-37
2022/01/28 11:54:02;;;;;;;21.23;13.30;;;;;;;;;;5057793;28;20028;-36
2022/01/28 11:56:28;;;;;;;31.80;17.10;;;;;;;;;;5055292;28;20526;-37
2022/01/28 11:58:56;;;;;;;16.02;13.38;;;;;;;;;;5056459;28;20189;-36
2022/01/28 12:01:26;;;;;;;14.45;10.40;;;;;;;;;;5055267;28;20021;-38
2022/01/28 12:04:11;;;;;;;9.23;7.45;;;;;;;;;;5056062;28;20092;-38
2022/01/28 12:06:38;;;;;;;21.25;13.25;;;;;;;;;;5055036;28;20021;-39
2022/01/28 12:09:03;;;;;;;14.63;10.57;;;;;;;;;;5055459;28;20025;-37
2022/01/28 12:11:41;;;;;;;11.98;9.00;;;;;;;;;;5056604;28;20040;-36
2022/01/28 12:14:12;;;;;;;25.25;13.77;;;;;;;;;;5054265;28;20029;-38
2022/01/28 12:16:41;;;;;;;12.33;9.53;;;;;;;;;;5055813;28;20029;-38
2022/01/28 12:19:16;;;;;;;14.52;8.48;;;;;;;;;;5054901;28;20313;-37
2022/01/28 12:22:02;;;;;;;21.27;11.55;;;;;;;;;;5054866;28;20027;-37
2022/01/28 12:24:27;;;;;;;17.30;10.77;;;;;;;;;;5054405;28;20489;-39
2022/01/28 12:27:03;;;;;;;11.40;8.63;;;;;;;;;;5052942;28;20039;-36
2022/01/28 12:29:30;;;;;;;30.00;12.45;;;;;;;;;;5053346;28;20052;-38
2022/01/28 12:31:57;;;;;;;20.25;12.32;;;;;;;;;;5053666;28;20355;-37
2022/01/28 12:34:23;;;;;;;8.85;6.32;;;;;;;;;;5050735;28;20040;-37
2022/01/28 12:36:49;;;;;;;18.90;17.02;;;;;;;;;;5051038;28;20032;-37
2022/01/28 12:39:21;;;;;;;15.82;11.40;;;;;;;;;;5055834;28;20017;-38
2022/01/28 12:42:02;;;;;;;22.48;11.30;;;;;;;;;;5053767;28;20028;-37
2022/01/28 12:44:30;;;;;;;84.15;75.82;;;;;;;;;;5054641;28;20082;-36
2022/01/28 12:46:56;;;;;;;8.10;6.78;;;;;;;;;;5053952;28;20025;-36
2022/01/28 12:49:26;;;;;;;12.35;8.43;;;;;;;;;;5052426;28;20504;-36
2022/01/28 12:51:53;;;;;;;36.42;11.75;;;;;;;;;;5055805;28;20084;-37
2022/01/28 12:54:28;;;;;;;37.97;32.92;;;;;;;;;;5055229;28;20024;-36
2022/01/28 12:56:53;;;;;;;24.17;16.25;;;;;;;;;;5057422;28;20052;-36
2022/01/28 12:59:20;;;;;;;11.40;6.55;;;;;;;;;;5056841;28;20055;-37
2022/01/28 13:01:51;;;;;;;9.13;8.23;;;;;;;;;;5052812;28;20104;-39
2022/01/28 13:04:19;;;;;;;22.98;9.65;;;;;;;;;;5053999;28;20500;-36
2022/01/28 13:09:15;;;;;;;21.70;10.00;;;;;;;;;;5051944;28;20021;-36
2022/01/28 13:11:50;;;;;;;19.10;13.50;;;;;;;;;;5054208;28;20025;-37
2022/01/28 13:14:30;;;;;;;11.38;8.25;;;;;;;;;;5053189;28;20029;-37
2022/01/28 13:16:56;;;;;;;10.82;7.90;;;;;;;;;;5054563;28;20056;-35
2022/01/28 13:19:21;;;;;;;13.57;12.38;;;;;;;;;;5052290;28;20096;-36
2022/01/28 13:21:48;;;;;;;10.27;9.30;;;;;;;;;;5054375;28;20679;-36
2022/01/28 13:24:20;;;;;;;22.48;7.90;;;;;;;;;;5054488;28;20025;-40
2022/01/28 13:26:55;;;;;;;8.57;4.70;;;;;;;;;;5053670;28;20107;-36
2022/01/28 13:29:39;;;;;;;9.60;6.95;;;;;;;;;;5055910;28;20108;-43
2022/01/28 13:32:06;;;;;;;16.50;6.97;;;;;;;;;;5058445;28;20189;-42
2022/01/28 13:34:46;;;;;;;13.05;9.07;;;;;;;;;;5052819;28;20039;-36
2022/01/28 13:37:12;;;;;;;9.98;7.05;;;;;;;;;;5054903;28;20044;-40
2022/01/28 13:39:41;;;;;;;14.32;6.30;;;;;;;;;;5054605;28;20016;-38
2022/01/28 13:42:13;;;;;;;7.20;5.57;;;;;;;;;;5052299;28;20584;-37
2022/01/28 13:44:42;;;;;;;10.40;6.05;;;;;;;;;;5052782;28;20067;-35
2022/01/28 13:47:09;;;;;;;6.75;5.32;;;;;;;;;;5052374;28;20028;-34
2022/01/28 13:49:39;;;;;;;6.30;5.53;;;;;;;;;;5053386;28;20021;-36
2022/01/28 13:52:09;;;;;;;14.18;8.73;;;;;;;;;;5054895;28;20053;-37
2022/01/28 13:54:34;;;;;;;14.88;9.70;;;;;;;;;;5051673;28;20120;-36
2022/01/28 13:57:00;;;;;;;38.50;9.02;;;;;;;;;;5050370;28;20163;-36
2022/01/28 13:59:29;;;;;;;6.28;4.43;;;;;;;;;;5057194;28;20031;-39
2022/01/28 14:01:56;;;;;;;7.53;4.70;;;;;;;;;;5057986;28;20082;-40
2022/01/28 14:04:22;;;;;;;8.05;5.68;;;;;;;;;;5054960;28;20063;-36
2022/01/28 14:06:47;;;;;;;9.10;6.05;;;;;;;;;;5052706;28;20049;-34
2022/01/28 14:09:23;;;;;;;7.90;3.88;;;;;;;;;;5048623;28;20482;-38
2022/01/28 14:11:52;;;;;;;10.52;6.75;;;;;;;;;;5054502;28;20043;-37
2022/01/28 14:14:25;;;;;;;17.58;6.22;;;;;;;;;;5053241;28;20041;-36
2022/01/28 14:16:52;;;;;;;8.35;5.80;;;;;;;;;;5050986;28;20020;-36
2022/01/28 14:19:18;;;;;;;8.13;5.22;;;;;;;;;;5052652;28;20029;-37
2022/01/28 14:21:44;;;;;;;6.47;5.75;;;;;;;;;;5055089;28;20035;-36
2022/01/28 14:24:12;;;;;;;10.00;5.20;;;;;;;;;;5052815;28;20039;-36
2022/01/28 14:26:41;;;;;;;16.27;7.53;;;;;;;;;;5054876;28;20024;-36
2022/01/28 14:31:35;;;;;;;12.07;9.93;;;;;;;;;;5053190;28;20040;-35
2022/01/28 14:34:02;;;;;;;21.08;11.77;;;;;;;;;;5050720;28;20040;-36
2022/01/28 14:36:27;;;;;;;22.63;10.07;;;;;;;;;;5049422;28;20044;-35
2022/01/28 14:38:53;;;;;;;10.07;9.02;;;;;;;;;;5055964;28;20025;-36
2022/01/28 14:41:18;;;;;;;18.75;10.43;;;;;;;;;;5048750;28;20120;-35
2022/01/28 14:43:44;;;;;;;19.40;11.32;;;;;;;;;;5051404;28;20025;-36
2022/01/28 14:46:09;;;;;;;14.63;11.60;;;;;;;;;;5050995;28;20541;-35
2022/01/28 14:48:34;;;;;;;16.13;11.35;;;;;;;;;;5053520;28;20017;-36
2022/01/28 14:51:00;;;;;;;16.45;13.82;;;;;;;;;;5053443;28;20148;-36
2022/01/28 14:53:25;;;;;;;19.92;17.27;;;;;;;;;;5055741;28;20021;-36
2022/01/28 14:55:50;;;;;;;17.67;15.93;;;;;;;;;;5049735;28;20545;-36
2022/01/28 14:58:16;;;;;;;15.43;13.85;;;;;;;;;;5052486;28;20749;-36
2022/01/28 15:00:41;;;;;;;14.13;12.55;;;;;;;;;;5054210;28;20098;-35
2022/01/28 15:03:09;;;;;;;13.35;11.15;;;;;;;;;;5053441;28;20078;-36
2022/01/28 15:05:35;;;;;;;12.00;10.40;;;;;;;;;;5051453;28;20552;-36
2022/01/28 15:08:07;;;;;;;13.90;12.60;;;;;;;;;;5052550;28;20036;-37
2022/01/28 15:10:32;;;;;;;;;;;;;;;;;;5050985;28;20025;-35
2022/01/28 15:12:57;;;;;;;10.23;9.23;;;;;;;;;;5055812;28;19924;-36
2022/01/28 15:15:22;;;;;;;11.52;8.20;;;;;;;;;;5048784;28;20482;-35
2022/01/28 15:17:48;;;;;;;11.98;10.30;;;;;;;;;;5056311;28;20025;-35
2022/01/28 15:20:13;;;;;;;12.57;11.40;;;;;;;;;;5049535;28;20033;-35
2022/01/28 15:22:38;;;;;;;12.57;11.27;;;;;;;;;;5047165;28;20116;-36
2022/01/28 15:25:04;;;;;;;8.93;8.00;;;;;;;;;;5052210;28;20024;-36
2022/01/28 15:27:32;;;;;;;10.02;9.07;;;;;;;;;;5052876;28;20032;-36
2022/01/28 15:30:05;;;;;;;12.68;11.48;;;;;;;;;;5059473;28;20058;-36
2022/01/28 15:37:58;;;;;;;11.05;10.05;;;;;;;;;;5054594;28;20036;-37
2022/01/28 15:40:24;;;;;;;10.57;9.57;;;;;;;;;;5058361;28;20048;-36
2022/01/28 15:42:54;;;;;;;15.82;14.13;;;;;;;;;;5056464;28;20032;-35
2022/01/28 15:45:20;;;;;;;8.60;6.70;;;;;;;;;;5051404;28;20040;-36
2022/01/28 15:47:46;;;;;;;17.33;12.63;;;;;;;;;;5055313;28;20101;-36
2022/01/28 15:50:12;;;;;;;18.15;14.38;;;;;;;;;;5054136;28;20537;-36
2022/01/28 15:52:37;;;;;;;16.02;8.90;;;;;;;;;;5055494;28;20036;-35